Henri Lefebvre

Olheiro - OGC Nice
4 Dez 2028
Segunda-feira
Processo

Personalidade

Adaptabilidade (19) Ambição (20) Controvérsia (1) Lealdade (1) Pressão (3) Profissionalismo (5) Espírito Esportivo (14) Temperamento (6)

Perfil

Estilo de Treinamento Democrático
Licença Nacional A
Determinação 15
Gestão de Pessoas 5
Motivação 5
Disciplina 10
Satisfação no Trabalho
100%
Fadiga
0%
Função Olheiro
Salário 103.4K p/s
Contrato 14.03.2029

Desempenho

Comportamento Bom
Eficácia do Treinamento
52%
Desenvolvimento do Jogador
25%
Prevenção de Lesões
50%
Implementação Tática
50%

Eventos Recentes

Participou de uma reunião de recrutamento agora
Avaliou um jogador agora
Avaliou um jogador agora
Avaliou um jogador agora
Avaliou um jogador 7d atrás
Avaliou um jogador 7d atrás
Avaliou um jogador 7d atrás
Avaliou um jogador 7d atrás

Monitorando agora

76
Jogador Clube Status Habilidade Confiança Observado Última observação Último voto
Olivier Leroux Mouscron Ativo 107 / 115 40% 2 03.12.2028 -
Peyton Miller New England Revolution Ativo 114 / 120 40% 2 03.12.2028 -
Veljko Milosavljević Bournemouth Ativo 150 / 158 40% 3 03.12.2028 -
Riquelme Thompson-Jones Accrington Stanley Ativo 115 / 117 40% 5 02.12.2028 -
Honest Ahanor Atalanta Ativo 142 / 149 40% 7 02.12.2028 -
Idrissa Sabaly Valenciennes Ativo 106 / 113 40% 1 02.12.2028 -
Salvador Blopá Wolverhampton Ativo 125 / 134 40% 4 30.11.2028 -
Mathys Angély VfL Wolfsburg Ativo 125 / 125 40% 3 30.11.2028 -
Martim Cunha Porto Ativo 114 / 121 40% 2 30.11.2028 -
Tyler Fletcher Rotherham United Ativo 119 / 124 40% 3 28.11.2028 -
Matías Satas Grimsby Town Ativo 110 / 116 40% 1 28.11.2028 -
Harrison Armstrong Ipswich Town Ativo 142 / 140 40% 5 26.11.2028 -
Guy Noël Zohouri Le Havre AC Ativo 129 / 132 40% 2 25.11.2028 -
Rafael Mota Sporting CP Ativo 121 / 129 40% 1 24.11.2028 -
Christos Mouzakitis Hull City Ativo 142 / 144 40% 5 23.11.2028 -
Trey Nyoni Rotherham United Ativo 146 / 148 40% 2 23.11.2028 -
Chris Rigg West Ham United Ativo 143 / 150 40% 3 22.11.2028 -
Celías Ingenthron Platense Ativo 117 / 127 40% 4 21.11.2028 -
José Neto Benfica Ativo 123 / 128 40% 3 21.11.2028 -
Davinchi Getafe Ativo 126 / 136 40% 2 21.11.2028 -
Rene Hrvatin Istra 1961 Ativo 106 / 115 40% 2 20.11.2028 -
Josh King Newcastle United Ativo 145 / 153 40% 1 20.11.2028 -
Noah Markmann Esbjerg Ativo 128 / 129 40% 2 19.11.2028 -
Abubacarr Sedi Kinteh Al-Ahli Ativo 143 / 148 40% 1 19.11.2028 -
Cheveyo Tsawa Club Brugge Ativo 130 / 130 40% 3 18.11.2028 -
Andrija Bulatović Chamois Niortais Ativo 134 / 132 40% 5 16.11.2028 -
Daniel Banjaqui Benfica Ativo 132 / 138 40% 4 16.11.2028 -
Luis Otávio Orlando City Ativo 120 / 117 40% 3 15.11.2028 -
Alex Verón Vélez Ativo 118 / 118 40% 3 14.11.2028 -
Luka Vušković Tottenham Ativo 148 / 153 40% 1 14.11.2028 -
Ryan McAidoo Oldham Athletic Ativo 131 / 137 40% 1 14.11.2028 -
Marius Courcoul Angers SCO Ativo 124 / 123 40% 1 12.11.2028 -
Noa Mikić Imotski Ativo 120 / 121 40% 1 11.11.2028 -
Ayyoub Bouaddi Stoke City Ativo 150 / 161 40% 3 10.11.2028 -
Alexis Vossah Toulouse FC Ativo 130 / 138 40% 2 10.11.2028 -
Nejc Brekalo NK Domzale Ativo 107 / 115 40% 1 10.11.2028 -
Sebastian Olderheim Stromsgodset Ativo 115 / 115 40% 1 08.11.2028 -
Sebastian Rodriguez Houston Dynamo Ativo 115 / 120 40% 3 07.11.2028 -
Harry Amass Manchester United Ativo 147 / 148 40% 3 07.11.2028 -
Jeremy Kandje Mbambi Pisa Ativo 111 / 115 40% 1 07.11.2028 -
Felipe Obradovich Ferro Carril Oeste Ativo 108 / 111 40% 1 09.10.2028 -
Tobías Ramírez River Plate Ativo 128 / 132 40% 1 06.10.2028 -
Louis Page Leicester City Ativo 135 / 140 40% 1 06.10.2028 -
Thulani Manyama Portland Timbers Ativo 112 / 118 40% 1 03.10.2028 -
Pablo Lago Juventud Ativo 107 / 107 40% 1 13.09.2028 -
Julian Hall Real Salt Lake Ativo 113 / 121 40% 1 13.09.2028 -
Amine Boukamir Charleroi Ativo 105 / 114 40% 1 13.09.2028 -
Markus Wæhler Lillestrom Ativo 106 / 114 40% 2 09.09.2028 -
Lisandro Piñero Banfield Ativo 123 / 123 40% 1 09.09.2028 -
Kauã Moraes Flamengo Ativo 132 / 136 40% 1 09.09.2028 -
Wisdom Mike Club Brugge Ativo 121 / 131 40% 1 08.09.2028 -
Tahiel Peralta Racing Club Ativo 111 / 123 40% 1 07.09.2028 -
Santiago Segovia Rosario Central Ativo 112 / 117 40% 1 07.09.2028 -
Mateo Aguiar Tigre Ativo 112 / 117 40% 1 07.09.2028 -
Ramazan Bağdat Kairat Ativo 102 / 109 40% 1 06.09.2028 -
Trevan Sanusi Newcastle United Ativo 125 / 129 40% 1 06.09.2028 -
Triston Rowe Derby County Ativo 119 / 130 40% 1 05.09.2028 -
Guy Noël Zohouri Le Havre AC Perdido 129 / 130 86% 1 28.08.2028 -
Michel Mboula FC Metz Relatório pronto 130 / 130 86% 1 21.08.2028 -
Emiliano Vidal Chamois Niortais Perdido 125 / 129 86% 1 14.08.2028 -
Adama Soumaoro Paris FC Perdido 121 / 121 86% 1 07.08.2028 -
Giovanni Cantizano Fulham Ativo 125 / 130 40% 1 24.07.2028 -
Jake Evans Crewe Alexandra Ativo 115 / 124 40% 1 24.07.2028 -
Babis Kostoulas Oxford United Ativo 145 / 149 40% 1 24.07.2028 -
Ahmad Ngouyamsa US Creteil Perdido 123 / 119 86% 1 17.07.2028 -
Michał Skóraś RC Lens Perdido 132 / 133 86% 1 26.06.2028 -
Mohamed-Ali Cho Hull City Ativo 147 / 148 40% 1 31.05.2028 -
Iliman N'Diaye Everton Perdido 163 / 166 40% 1 31.05.2028 -
Shea Lacey Crystal Palace Ativo 136 / 142 40% 1 31.05.2028 -
Endrick Boca Juniors Ativo 159 / 158 40% 1 31.05.2028 -
Kamory Doumbia Stade Brestois Ativo 140 / 147 86% 1 02.01.2028 -
Miloš Luković RC Strasbourg Ativo 126 / 125 86% 1 01.01.2028 -
Louis Leroux FC Nantes Ativo 123 / 125 40% 1 31.05.2027 -
Marley Aké Zulte Waregem Ativo 112 / 118 40% 1 31.12.2026 -
Taiga Hata Sint-Truiden Ativo 123 / 122 40% 1 31.12.2026 -
Ali Maamar Anderlecht Ativo 100 / 105 40% 1 02.08.2026 -